sensor_id;sensor_type;location;lat;lon;timestamp;P1;durP1;ratioP1;P2;durP2;ratioP2
22935;SDS011;11633;42.716;23.312;2022-11-20T00:01:50;5.15;;;2.40;;
22935;SDS011;11633;42.716;23.312;2022-11-20T00:04:16;3.10;;;2.13;;
22935;SDS011;11633;42.716;23.312;2022-11-20T00:06:41;4.25;;;2.55;;
22935;SDS011;11633;42.716;23.312;2022-11-20T00:09:06;3.88;;;2.53;;
22935;SDS011;11633;42.716;23.312;2022-11-20T00:11:31;3.50;;;1.50;;
22935;SDS011;11633;42.716;23.312;2022-11-20T00:13:57;4.30;;;2.63;;
22935;SDS011;11633;42.716;23.312;2022-11-20T00:16:24;3.25;;;2.53;;
22935;SDS011;11633;42.716;23.312;2022-11-20T00:18:49;3.78;;;2.53;;
22935;SDS011;11633;42.716;23.312;2022-11-20T00:21:16;2.58;;;1.90;;
22935;SDS011;11633;42.716;23.312;2022-11-20T00:23:42;4.18;;;2.60;;
22935;SDS011;11633;42.716;23.312;2022-11-20T00:26:08;1.60;;;1.50;;
22935;SDS011;11633;42.716;23.312;2022-11-20T00:28:34;4.03;;;1.50;;
22935;SDS011;11633;42.716;23.312;2022-11-20T00:31:00;4.32;;;1.88;;
22935;SDS011;11633;42.716;23.312;2022-11-20T00:33:25;1.77;;;1.38;;
22935;SDS011;11633;42.716;23.312;2022-11-20T00:35:50;1.60;;;1.23;;
22935;SDS011;11633;42.716;23.312;2022-11-20T00:38:16;3.70;;;1.90;;
22935;SDS011;11633;42.716;23.312;2022-11-20T00:40:41;1.40;;;1.30;;
22935;SDS011;11633;42.716;23.312;2022-11-20T00:43:06;2.53;;;1.35;;
22935;SDS011;11633;42.716;23.312;2022-11-20T00:45:31;2.95;;;1.27;;
22935;SDS011;11633;42.716;23.312;2022-11-20T00:47:56;1.45;;;1.13;;
22935;SDS011;11633;42.716;23.312;2022-11-20T00:50:22;1.98;;;1.30;;
22935;SDS011;11633;42.716;23.312;2022-11-20T00:52:47;1.42;;;1.20;;
22935;SDS011;11633;42.716;23.312;2022-11-20T00:55:12;2.20;;;0.60;;
22935;SDS011;11633;42.716;23.312;2022-11-20T00:57:37;0.57;;;0.32;;
22935;SDS011;11633;42.716;23.312;2022-11-20T01:00:03;1.35;;;0.32;;
22935;SDS011;11633;42.716;23.312;2022-11-20T01:02:28;1.75;;;0.32;;
22935;SDS011;11633;42.716;23.312;2022-11-20T01:04:54;3.35;;;0.75;;
22935;SDS011;11633;42.716;23.312;2022-11-20T01:07:19;2.08;;;0.30;;
22935;SDS011;11633;42.716;23.312;2022-11-20T01:09:44;0.38;;;0.25;;
22935;SDS011;11633;42.716;23.312;2022-11-20T01:12:09;1.38;;;0.95;;
22935;SDS011;11633;42.716;23.312;2022-11-20T01:14:34;1.13;;;0.52;;
22935;SDS011;11633;42.716;23.312;2022-11-20T01:17:00;3.78;;;0.70;;
22935;SDS011;11633;42.716;23.312;2022-11-20T01:19:25;3.33;;;0.40;;
22935;SDS011;11633;42.716;23.312;2022-11-20T01:21:51;0.70;;;0.50;;
22935;SDS011;11633;42.716;23.312;2022-11-20T01:24:18;1.15;;;0.45;;
22935;SDS011;11633;42.716;23.312;2022-11-20T01:26:45;0.68;;;0.30;;
22935;SDS011;11633;42.716;23.312;2022-11-20T01:29:16;2.58;;;0.43;;
22935;SDS011;11633;42.716;23.312;2022-11-20T01:31:42;1.50;;;0.17;;
22935;SDS011;11633;42.716;23.312;2022-11-20T01:34:10;1.00;;;0.40;;
22935;SDS011;11633;42.716;23.312;2022-11-20T01:36:36;3.17;;;0.32;;
22935;SDS011;11633;42.716;23.312;2022-11-20T01:39:03;0.65;;;0.38;;
22935;SDS011;11633;42.716;23.312;2022-11-20T01:41:30;1.20;;;0.63;;
22935;SDS011;11633;42.716;23.312;2022-11-20T01:44:15;3.67;;;0.40;;
22935;SDS011;11633;42.716;23.312;2022-11-20T01:46:42;3.03;;;0.38;;
22935;SDS011;11633;42.716;23.312;2022-11-20T01:49:11;5.45;;;0.50;;
22935;SDS011;11633;42.716;23.312;2022-11-20T01:51:42;2.70;;;0.40;;
22935;SDS011;11633;42.716;23.312;2022-11-20T01:54:11;0.60;;;0.30;;
22935;SDS011;11633;42.716;23.312;2022-11-20T01:56:38;2.00;;;0.40;;
22935;SDS011;11633;42.716;23.312;2022-11-20T01:59:04;1.10;;;0.17;;
22935;SDS011;11633;42.716;23.312;2022-11-20T02:01:30;1.17;;;0.50;;
22935;SDS011;11633;42.716;23.312;2022-11-20T02:03:56;1.27;;;0.40;;
22935;SDS011;11633;42.716;23.312;2022-11-20T02:06:31;1.42;;;0.77;;
22935;SDS011;11633;42.716;23.312;2022-11-20T02:08:57;1.63;;;0.40;;
22935;SDS011;11633;42.716;23.312;2022-11-20T02:11:23;1.13;;;0.65;;
22935;SDS011;11633;42.716;23.312;2022-11-20T02:13:48;1.30;;;0.60;;
22935;SDS011;11633;42.716;23.312;2022-11-20T02:18:39;0.88;;;0.38;;
22935;SDS011;11633;42.716;23.312;2022-11-20T02:21:17;0.98;;;0.47;;
22935;SDS011;11633;42.716;23.312;2022-11-20T02:24:05;1.52;;;0.52;;
22935;SDS011;11633;42.716;23.312;2022-11-20T02:26:30;1.23;;;0.40;;
22935;SDS011;11633;42.716;23.312;2022-11-20T02:28:56;1.23;;;0.50;;
22935;SDS011;11633;42.716;23.312;2022-11-20T02:31:21;1.25;;;0.40;;
22935;SDS011;11633;42.716;23.312;2022-11-20T02:33:46;3.13;;;0.30;;
22935;SDS011;11633;42.716;23.312;2022-11-20T02:36:13;1.75;;;0.43;;
22935;SDS011;11633;42.716;23.312;2022-11-20T02:38:39;0.80;;;0.38;;
22935;SDS011;11633;42.716;23.312;2022-11-20T02:41:05;0.90;;;0.40;;
22935;SDS011;11633;42.716;23.312;2022-11-20T02:43:30;1.75;;;0.50;;
22935;SDS011;11633;42.716;23.312;2022-11-20T02:45:55;0.82;;;0.50;;
22935;SDS011;11633;42.716;23.312;2022-11-20T02:48:20;1.13;;;0.32;;
22935;SDS011;11633;42.716;23.312;2022-11-20T02:50:46;0.98;;;0.30;;
22935;SDS011;11633;42.716;23.312;2022-11-20T02:53:11;4.10;;;0.82;;
22935;SDS011;11633;42.716;23.312;2022-11-20T02:55:36;2.97;;;0.50;;
22935;SDS011;11633;42.716;23.312;2022-11-20T02:58:01;1.55;;;0.68;;
22935;SDS011;11633;42.716;23.312;2022-11-20T03:00:27;1.25;;;0.60;;
22935;SDS011;11633;42.716;23.312;2022-11-20T03:02:52;0.70;;;0.40;;
22935;SDS011;11633;42.716;23.312;2022-11-20T03:05:17;2.25;;;0.20;;
22935;SDS011;11633;42.716;23.312;2022-11-20T03:07:43;1.85;;;0.50;;
22935;SDS011;11633;42.716;23.312;2022-11-20T03:10:08;3.58;;;0.47;;
22935;SDS011;11633;42.716;23.312;2022-11-20T03:12:34;3.92;;;0.90;;
22935;SDS011;11633;42.716;23.312;2022-11-20T03:14:59;2.15;;;0.93;;
22935;SDS011;11633;42.716;23.312;2022-11-20T03:17:24;0.88;;;0.55;;
22935;SDS011;11633;42.716;23.312;2022-11-20T03:19:49;0.82;;;0.57;;
22935;SDS011;11633;42.716;23.312;2022-11-20T03:22:15;3.70;;;0.50;;
22935;SDS011;11633;42.716;23.312;2022-11-20T03:24:40;5.55;;;0.70;;
22935;SDS011;11633;42.716;23.312;2022-11-20T03:27:05;0.65;;;0.45;;
22935;SDS011;11633;42.716;23.312;2022-11-20T03:29:30;2.10;;;0.60;;
22935;SDS011;11633;42.716;23.312;2022-11-20T03:31:55;0.90;;;0.45;;
22935;SDS011;11633;42.716;23.312;2022-11-20T03:34:21;1.85;;;0.55;;
22935;SDS011;11633;42.716;23.312;2022-11-20T03:36:46;1.60;;;0.60;;
22935;SDS011;11633;42.716;23.312;2022-11-20T03:39:11;2.03;;;0.60;;
22935;SDS011;11633;42.716;23.312;2022-11-20T03:41:37;1.65;;;0.60;;
22935;SDS011;11633;42.716;23.312;2022-11-20T03:44:04;2.65;;;0.40;;
22935;SDS011;11633;42.716;23.312;2022-11-20T03:46:29;1.02;;;0.40;;
22935;SDS011;11633;42.716;23.312;2022-11-20T03:48:55;2.42;;;0.32;;
22935;SDS011;11633;42.716;23.312;2022-11-20T03:51:22;2.13;;;0.60;;
22935;SDS011;11633;42.716;23.312;2022-11-20T03:53:48;1.20;;;0.50;;
22935;SDS011;11633;42.716;23.312;2022-11-20T03:56:14;1.95;;;1.00;;
22935;SDS011;11633;42.716;23.312;2022-11-20T03:58:40;3.28;;;0.75;;
22935;SDS011;11633;42.716;23.312;2022-11-20T04:01:08;1.00;;;0.45;;
22935;SDS011;11633;42.716;23.312;2022-11-20T04:03:34;1.23;;;0.50;;
22935;SDS011;11633;42.716;23.312;2022-11-20T04:06:06;1.58;;;0.65;;
22935;SDS011;11633;42.716;23.312;2022-11-20T04:08:32;1.65;;;0.77;;
22935;SDS011;11633;42.716;23.312;2022-11-20T04:11:07;3.72;;;0.68;;
22935;SDS011;11633;42.716;23.312;2022-11-20T04:13:33;4.70;;;0.93;;
22935;SDS011;11633;42.716;23.312;2022-11-20T04:15:58;3.30;;;0.82;;
22935;SDS011;11633;42.716;23.312;2022-11-20T04:18:23;3.42;;;0.80;;
22935;SDS011;11633;42.716;23.312;2022-11-20T04:20:48;0.93;;;0.40;;
22935;SDS011;11633;42.716;23.312;2022-11-20T04:23:14;0.50;;;0.40;;
22935;SDS011;11633;42.716;23.312;2022-11-20T04:25:39;2.67;;;0.52;;
22935;SDS011;11633;42.716;23.312;2022-11-20T04:28:04;1.45;;;0.52;;
22935;SDS011;11633;42.716;23.312;2022-11-20T04:30:30;2.10;;;0.40;;
22935;SDS011;11633;42.716;23.312;2022-11-20T04:32:55;1.92;;;0.40;;
22935;SDS011;11633;42.716;23.312;2022-11-20T04:35:20;0.85;;;0.65;;
22935;SDS011;11633;42.716;23.312;2022-11-20T04:37:46;0.93;;;0.50;;
22935;SDS011;11633;42.716;23.312;2022-11-20T04:40:11;2.53;;;0.50;;
22935;SDS011;11633;42.716;23.312;2022-11-20T04:42:36;1.73;;;0.63;;
22935;SDS011;11633;42.716;23.312;2022-11-20T04:45:02;0.30;;;0.20;;
22935;SDS011;11633;42.716;23.312;2022-11-20T04:47:27;1.23;;;0.55;;
22935;SDS011;11633;42.716;23.312;2022-11-20T04:49:52;1.30;;;0.50;;
22935;SDS011;11633;42.716;23.312;2022-11-20T04:52:17;0.98;;;0.47;;
22935;SDS011;11633;42.716;23.312;2022-11-20T04:54:43;2.58;;;0.60;;
22935;SDS011;11633;42.716;23.312;2022-11-20T04:57:08;0.93;;;0.57;;
22935;SDS011;11633;42.716;23.312;2022-11-20T04:59:33;1.90;;;0.45;;
22935;SDS011;11633;42.716;23.312;2022-11-20T05:01:58;3.53;;;0.40;;
22935;SDS011;11633;42.716;23.312;2022-11-20T05:04:24;1.38;;;0.40;;
22935;SDS011;11633;42.716;23.312;2022-11-20T05:06:49;1.08;;;0.40;;
22935;SDS011;11633;42.716;23.312;2022-11-20T05:09:14;1.85;;;0.52;;
22935;SDS011;11633;42.716;23.312;2022-11-20T05:11:40;2.45;;;0.57;;
22935;SDS011;11633;42.716;23.312;2022-11-20T05:14:05;0.50;;;0.40;;
22935;SDS011;11633;42.716;23.312;2022-11-20T05:16:30;1.33;;;0.45;;
22935;SDS011;11633;42.716;23.312;2022-11-20T05:18:56;1.40;;;0.47;;
22935;SDS011;11633;42.716;23.312;2022-11-20T05:21:22;0.38;;;0.25;;
22935;SDS011;11633;42.716;23.312;2022-11-20T05:23:47;1.70;;;0.40;;
22935;SDS011;11633;42.716;23.312;2022-11-20T05:26:17;2.47;;;0.28;;
22935;SDS011;11633;42.716;23.312;2022-11-20T05:28:43;0.93;;;0.40;;
22935;SDS011;11633;42.716;23.312;2022-11-20T05:31:09;5.82;;;0.88;;
22935;SDS011;11633;42.716;23.312;2022-11-20T05:33:35;0.90;;;0.55;;
22935;SDS011;11633;42.716;23.312;2022-11-20T05:36:01;0.75;;;0.50;;
22935;SDS011;11633;42.716;23.312;2022-11-20T05:38:26;1.00;;;0.50;;
22935;SDS011;11633;42.716;23.312;2022-11-20T05:40:52;2.15;;;0.55;;
22935;SDS011;11633;42.716;23.312;2022-11-20T05:43:17;1.02;;;0.50;;
22935;SDS011;11633;42.716;23.312;2022-11-20T05:45:42;1.10;;;0.60;;
22935;SDS011;11633;42.716;23.312;2022-11-20T05:48:07;2.78;;;0.52;;
22935;SDS011;11633;42.716;23.312;2022-11-20T05:50:33;0.50;;;0.50;;
22935;SDS011;11633;42.716;23.312;2022-11-20T05:52:58;1.52;;;0.43;;
22935;SDS011;11633;42.716;23.312;2022-11-20T05:55:24;1.02;;;0.52;;
22935;SDS011;11633;42.716;23.312;2022-11-20T05:57:49;1.38;;;0.70;;
22935;SDS011;11633;42.716;23.312;2022-11-20T06:00:15;2.28;;;0.68;;
22935;SDS011;11633;42.716;23.312;2022-11-20T06:02:40;3.60;;;0.60;;
22935;SDS011;11633;42.716;23.312;2022-11-20T06:05:05;1.77;;;0.40;;
22935;SDS011;11633;42.716;23.312;2022-11-20T06:07:31;2.13;;;0.63;;
22935;SDS011;11633;42.716;23.312;2022-11-20T06:09:56;2.10;;;0.95;;
22935;SDS011;11633;42.716;23.312;2022-11-20T06:12:21;1.23;;;0.70;;
22935;SDS011;11633;42.716;23.312;2022-11-20T06:14:46;1.08;;;0.75;;
22935;SDS011;11633;42.716;23.312;2022-11-20T06:17:12;1.50;;;0.45;;
22935;SDS011;11633;42.716;23.312;2022-11-20T06:19:38;2.67;;;0.75;;
22935;SDS011;11633;42.716;23.312;2022-11-20T06:22:03;0.50;;;0.50;;
22935;SDS011;11633;42.716;23.312;2022-11-20T06:24:28;0.55;;;0.30;;
22935;SDS011;11633;42.716;23.312;2022-11-20T06:26:53;1.45;;;1.27;;
22935;SDS011;11633;42.716;23.312;2022-11-20T06:29:19;2.97;;;0.70;;
22935;SDS011;11633;42.716;23.312;2022-11-20T06:31:44;3.13;;;1.58;;
22935;SDS011;11633;42.716;23.312;2022-11-20T06:34:09;2.45;;;0.47;;
22935;SDS011;11633;42.716;23.312;2022-11-20T06:36:35;5.80;;;2.63;;
22935;SDS011;11633;42.716;23.312;2022-11-20T06:39:00;5.13;;;2.85;;
22935;SDS011;11633;42.716;23.312;2022-11-20T06:41:26;2.97;;;1.77;;
22935;SDS011;11633;42.716;23.312;2022-11-20T06:43:51;7.25;;;2.47;;
22935;SDS011;11633;42.716;23.312;2022-11-20T06:46:17;2.80;;;1.90;;
22935;SDS011;11633;42.716;23.312;2022-11-20T06:48:43;3.35;;;0.80;;
22935;SDS011;11633;42.716;23.312;2022-11-20T06:51:08;2.55;;;1.48;;
22935;SDS011;11633;42.716;23.312;2022-11-20T06:53:33;4.50;;;1.13;;
22935;SDS011;11633;42.716;23.312;2022-11-20T06:55:59;1.95;;;1.15;;
22935;SDS011;11633;42.716;23.312;2022-11-20T06:58:26;2.42;;;1.17;;
22935;SDS011;11633;42.716;23.312;2022-11-20T07:00:51;1.20;;;0.73;;
22935;SDS011;11633;42.716;23.312;2022-11-20T07:03:17;3.28;;;0.93;;
22935;SDS011;11633;42.716;23.312;2022-11-20T07:05:42;2.53;;;1.17;;
22935;SDS011;11633;42.716;23.312;2022-11-20T07:08:07;3.83;;;0.93;;
22935;SDS011;11633;42.716;23.312;2022-11-20T07:10:32;7.03;;;3.35;;
22935;SDS011;11633;42.716;23.312;2022-11-20T07:12:58;4.63;;;2.58;;
22935;SDS011;11633;42.716;23.312;2022-11-20T07:15:23;2.33;;;0.98;;
22935;SDS011;11633;42.716;23.312;2022-11-20T07:17:49;10.73;;;6.03;;
22935;SDS011;11633;42.716;23.312;2022-11-20T07:20:14;2.13;;;0.80;;
22935;SDS011;11633;42.716;23.312;2022-11-20T07:22:40;1.67;;;0.60;;
22935;SDS011;11633;42.716;23.312;2022-11-20T07:25:06;1.83;;;0.80;;
22935;SDS011;11633;42.716;23.312;2022-11-20T07:27:31;3.13;;;1.05;;
22935;SDS011;11633;42.716;23.312;2022-11-20T07:29:56;2.70;;;0.80;;
22935;SDS011;11633;42.716;23.312;2022-11-20T07:32:22;3.08;;;1.33;;
22935;SDS011;11633;42.716;23.312;2022-11-20T07:34:47;1.77;;;0.80;;
22935;SDS011;11633;42.716;23.312;2022-11-20T07:37:13;2.17;;;0.73;;
22935;SDS011;11633;42.716;23.312;2022-11-20T07:39:38;1.52;;;0.70;;
22935;SDS011;11633;42.716;23.312;2022-11-20T07:42:03;1.27;;;0.70;;
22935;SDS011;11633;42.716;23.312;2022-11-20T07:44:28;3.20;;;0.90;;
22935;SDS011;11633;42.716;23.312;2022-11-20T07:46:54;0.93;;;0.65;;
22935;SDS011;11633;42.716;23.312;2022-11-20T07:49:19;3.33;;;0.65;;
22935;SDS011;11633;42.716;23.312;2022-11-20T07:51:44;7.85;;;1.27;;
22935;SDS011;11633;42.716;23.312;2022-11-20T07:54:09;2.40;;;0.95;;
22935;SDS011;11633;42.716;23.312;2022-11-20T07:56:35;5.33;;;1.40;;
22935;SDS011;11633;42.716;23.312;2022-11-20T07:59:00;5.10;;;1.87;;
22935;SDS011;11633;42.716;23.312;2022-11-20T08:01:25;4.50;;;1.70;;
22935;SDS011;11633;42.716;23.312;2022-11-20T08:03:50;3.33;;;1.27;;
22935;SDS011;11633;42.716;23.312;2022-11-20T08:06:16;2.65;;;1.00;;
22935;SDS011;11633;42.716;23.312;2022-11-20T08:08:41;4.10;;;1.73;;
22935;SDS011;11633;42.716;23.312;2022-11-20T08:11:06;5.68;;;1.52;;
22935;SDS011;11633;42.716;23.312;2022-11-20T08:13:50;1.60;;;1.10;;
22935;SDS011;11633;42.716;23.312;2022-11-20T08:16:34;5.68;;;1.52;;
22935;SDS011;11633;42.716;23.312;2022-11-20T08:18:59;9.40;;;1.40;;
22935;SDS011;11633;42.716;23.312;2022-11-20T08:21:24;2.95;;;1.05;;
22935;SDS011;11633;42.716;23.312;2022-11-20T08:23:49;3.22;;;1.50;;
22935;SDS011;11633;42.716;23.312;2022-11-20T08:26:15;4.28;;;1.77;;
22935;SDS011;11633;42.716;23.312;2022-11-20T08:28:40;2.00;;;1.40;;
22935;SDS011;11633;42.716;23.312;2022-11-20T08:31:05;2.08;;;1.38;;
22935;SDS011;11633;42.716;23.312;2022-11-20T08:33:30;2.78;;;1.20;;
22935;SDS011;11633;42.716;23.312;2022-11-20T08:36:00;3.58;;;1.42;;
22935;SDS011;11633;42.716;23.312;2022-11-20T08:38:26;4.25;;;2.05;;
22935;SDS011;11633;42.716;23.312;2022-11-20T08:40:51;6.40;;;3.10;;
22935;SDS011;11633;42.716;23.312;2022-11-20T08:43:35;2.70;;;1.30;;
22935;SDS011;11633;42.716;23.312;2022-11-20T08:46:00;3.20;;;1.80;;
22935;SDS011;11633;42.716;23.312;2022-11-20T08:48:25;6.25;;;1.48;;
22935;SDS011;11633;42.716;23.312;2022-11-20T08:50:51;2.45;;;1.20;;
22935;SDS011;11633;42.716;23.312;2022-11-20T08:53:16;6.00;;;1.10;;
22935;SDS011;11633;42.716;23.312;2022-11-20T08:55:41;2.40;;;1.55;;
22935;SDS011;11633;42.716;23.312;2022-11-20T08:58:06;3.67;;;1.95;;
22935;SDS011;11633;42.716;23.312;2022-11-20T09:00:32;3.85;;;0.80;;
22935;SDS011;11633;42.716;23.312;2022-11-20T09:02:57;0.90;;;0.80;;
22935;SDS011;11633;42.716;23.312;2022-11-20T09:05:23;1.58;;;0.98;;
22935;SDS011;11633;42.716;23.312;2022-11-20T09:07:48;3.90;;;1.30;;
22935;SDS011;11633;42.716;23.312;2022-11-20T09:10:14;4.22;;;1.48;;
22935;SDS011;11633;42.716;23.312;2022-11-20T09:12:39;1.60;;;1.48;;
22935;SDS011;11633;42.716;23.312;2022-11-20T09:15:04;4.13;;;1.70;;
22935;SDS011;11633;42.716;23.312;2022-11-20T09:17:29;2.75;;;2.33;;
22935;SDS011;11633;42.716;23.312;2022-11-20T09:19:55;4.70;;;1.45;;
22935;SDS011;11633;42.716;23.312;2022-11-20T09:22:20;4.63;;;1.67;;
22935;SDS011;11633;42.716;23.312;2022-11-20T09:24:45;5.05;;;1.48;;
22935;SDS011;11633;42.716;23.312;2022-11-20T09:27:10;3.75;;;2.08;;
22935;SDS011;11633;42.716;23.312;2022-11-20T09:29:36;5.13;;;1.63;;
22935;SDS011;11633;42.716;23.312;2022-11-20T09:32:01;5.47;;;1.80;;
22935;SDS011;11633;42.716;23.312;2022-11-20T09:34:26;5.20;;;3.10;;
22935;SDS011;11633;42.716;23.312;2022-11-20T09:36:51;3.83;;;1.83;;
22935;SDS011;11633;42.716;23.312;2022-11-20T09:39:17;3.60;;;1.52;;
22935;SDS011;11633;42.716;23.312;2022-11-20T09:47:00;4.03;;;1.55;;
22935;SDS011;11633;42.716;23.312;2022-11-20T09:52:08;6.85;;;2.05;;
22935;SDS011;11633;42.716;23.312;2022-11-20T09:54:36;2.72;;;0.98;;
22935;SDS011;11633;42.716;23.312;2022-11-20T09:57:03;4.20;;;0.80;;
22935;SDS011;11633;42.716;23.312;2022-11-20T09:59:38;2.75;;;1.10;;
22935;SDS011;11633;42.716;23.312;2022-11-20T10:05:31;3.90;;;1.30;;
22935;SDS011;11633;42.716;23.312;2022-11-20T10:07:42;2.55;;;1.25;;
22935;SDS011;11633;42.716;23.312;2022-11-20T10:10:16;3.65;;;1.05;;
22935;SDS011;11633;42.716;23.312;2022-11-20T10:15:12;3.53;;;1.30;;
22935;SDS011;11633;42.716;23.312;2022-11-20T10:20:17;3.20;;;1.42;;
22935;SDS011;11633;42.716;23.312;2022-11-20T10:26:26;2.72;;;1.40;;
22935;SDS011;11633;42.716;23.312;2022-11-20T10:31:06;2.42;;;1.45;;
22935;SDS011;11633;42.716;23.312;2022-11-20T10:33:34;3.58;;;1.30;;
22935;SDS011;11633;42.716;23.312;2022-11-20T10:36:15;3.53;;;1.55;;
22935;SDS011;11633;42.716;23.312;2022-11-20T10:38:56;5.60;;;1.73;;
22935;SDS011;11633;42.716;23.312;2022-11-20T10:41:24;4.22;;;1.30;;
22935;SDS011;11633;42.716;23.312;2022-11-20T10:43:52;3.70;;;2.33;;
22935;SDS011;11633;42.716;23.312;2022-11-20T10:46:20;4.25;;;1.63;;
22935;SDS011;11633;42.716;23.312;2022-11-20T10:48:47;3.90;;;1.35;;
22935;SDS011;11633;42.716;23.312;2022-11-20T10:56:36;8.38;;;2.28;;
22935;SDS011;11633;42.716;23.312;2022-11-20T11:01:47;3.83;;;2.45;;
22935;SDS011;11633;42.716;23.312;2022-11-20T11:04:23;3.05;;;1.40;;
22935;SDS011;11633;42.716;23.312;2022-11-20T11:06:54;7.88;;;1.17;;
22935;SDS011;11633;42.716;23.312;2022-11-20T11:09:24;2.78;;;1.48;;
22935;SDS011;11633;42.716;23.312;2022-11-20T11:11:53;1.63;;;0.80;;
22935;SDS011;11633;42.716;23.312;2022-11-20T11:14:18;2.60;;;0.70;;
22935;SDS011;11633;42.716;23.312;2022-11-20T11:16:53;5.65;;;1.95;;
22935;SDS011;11633;42.716;23.312;2022-11-20T11:19:19;1.98;;;0.88;;
22935;SDS011;11633;42.716;23.312;2022-11-20T11:21:53;1.23;;;0.70;;
22935;SDS011;11633;42.716;23.312;2022-11-20T11:24:26;1.40;;;0.60;;
22935;SDS011;11633;42.716;23.312;2022-11-20T11:27:02;1.05;;;0.73;;
22935;SDS011;11633;42.716;23.312;2022-11-20T11:29:36;1.60;;;0.70;;
22935;SDS011;11633;42.716;23.312;2022-11-20T11:34:33;1.50;;;0.50;;
22935;SDS011;11633;42.716;23.312;2022-11-20T11:36:58;3.75;;;1.40;;
22935;SDS011;11633;42.716;23.312;2022-11-20T11:39:24;2.00;;;1.45;;
22935;SDS011;11633;42.716;23.312;2022-11-20T11:41:50;2.40;;;0.82;;
22935;SDS011;11633;42.716;23.312;2022-11-20T11:44:20;1.17;;;0.60;;
22935;SDS011;11633;42.716;23.312;2022-11-20T11:47:09;1.10;;;0.43;;
22935;SDS011;11633;42.716;23.312;2022-11-20T11:49:35;1.90;;;0.47;;
22935;SDS011;11633;42.716;23.312;2022-11-20T11:57:00;2.20;;;0.70;;
22935;SDS011;11633;42.716;23.312;2022-11-20T12:02:14;1.88;;;0.68;;
22935;SDS011;11633;42.716;23.312;2022-11-20T12:07:10;1.77;;;0.60;;
22935;SDS011;11633;42.716;23.312;2022-11-20T12:09:38;0.95;;;0.95;;
22935;SDS011;11633;42.716;23.312;2022-11-20T12:12:15;2.88;;;0.73;;
22935;SDS011;11633;42.716;23.312;2022-11-20T12:14:42;4.50;;;0.82;;
22935;SDS011;11633;42.716;23.312;2022-11-20T12:17:11;3.03;;;0.95;;
22935;SDS011;11633;42.716;23.312;2022-11-20T12:19:37;2.90;;;0.95;;
22935;SDS011;11633;42.716;23.312;2022-11-20T12:27:00;5.05;;;2.00;;
22935;SDS011;11633;42.716;23.312;2022-11-20T12:29:32;3.28;;;0.90;;
22935;SDS011;11633;42.716;23.312;2022-11-20T12:35:00;2.60;;;1.63;;
22935;SDS011;11633;42.716;23.312;2022-11-20T12:37:49;2.55;;;0.90;;
22935;SDS011;11633;42.716;23.312;2022-11-20T12:40:28;3.95;;;0.95;;
22935;SDS011;11633;42.716;23.312;2022-11-20T12:46:04;3.40;;;1.48;;
22935;SDS011;11633;42.716;23.312;2022-11-20T12:53:33;4.40;;;2.95;;
22935;SDS011;11633;42.716;23.312;2022-11-20T12:56:21;5.55;;;2.45;;
22935;SDS011;11633;42.716;23.312;2022-11-20T12:59:04;2.60;;;1.50;;
22935;SDS011;11633;42.716;23.312;2022-11-20T13:04:16;4.22;;;1.70;;
22935;SDS011;11633;42.716;23.312;2022-11-20T13:06:45;1.75;;;1.10;;
22935;SDS011;11633;42.716;23.312;2022-11-20T13:09:14;3.97;;;1.55;;
22935;SDS011;11633;42.716;23.312;2022-11-20T13:11:41;4.63;;;1.48;;
22935;SDS011;11633;42.716;23.312;2022-11-20T13:16:41;3.65;;;1.50;;
22935;SDS011;11633;42.716;23.312;2022-11-20T13:19:13;3.50;;;1.13;;
22935;SDS011;11633;42.716;23.312;2022-11-20T13:21:46;0.95;;;0.75;;
22935;SDS011;11633;42.716;23.312;2022-11-20T13:26:47;6.72;;;1.50;;
22935;SDS011;11633;42.716;23.312;2022-11-20T13:29:17;5.63;;;2.78;;
22935;SDS011;11633;42.716;23.312;2022-11-20T13:31:46;9.13;;;3.58;;
22935;SDS011;11633;42.716;23.312;2022-11-20T13:34:24;5.80;;;2.50;;
22935;SDS011;11633;42.716;23.312;2022-11-20T13:36:52;4.68;;;2.67;;
22935;SDS011;11633;42.716;23.312;2022-11-20T13:39:27;8.98;;;5.88;;
22935;SDS011;11633;42.716;23.312;2022-11-20T13:42:03;2.55;;;1.50;;
22935;SDS011;11633;42.716;23.312;2022-11-20T13:44:39;2.35;;;1.33;;
22935;SDS011;11633;42.716;23.312;2022-11-20T13:47:25;2.45;;;1.63;;
22935;SDS011;11633;42.716;23.312;2022-11-20T13:49:51;3.92;;;1.30;;
22935;SDS011;11633;42.716;23.312;2022-11-20T13:59:57;3.10;;;1.08;;
22935;SDS011;11633;42.716;23.312;2022-11-20T14:02:23;2.80;;;1.23;;
22935;SDS011;11633;42.716;23.312;2022-11-20T14:04:51;3.05;;;1.42;;
22935;SDS011;11633;42.716;23.312;2022-11-20T14:07:17;3.30;;;1.50;;
22935;SDS011;11633;42.716;23.312;2022-11-20T14:09:53;5.63;;;2.35;;
22935;SDS011;11633;42.716;23.312;2022-11-20T14:12:20;6.90;;;2.40;;
22935;SDS011;11633;42.716;23.312;2022-11-20T14:14:52;4.07;;;2.47;;
22935;SDS011;11633;42.716;23.312;2022-11-20T14:17:22;2.45;;;1.88;;
22935;SDS011;11633;42.716;23.312;2022-11-20T14:19:50;2.65;;;1.95;;
22935;SDS011;11633;42.716;23.312;2022-11-20T14:22:23;3.67;;;1.75;;
22935;SDS011;11633;42.716;23.312;2022-11-20T14:24:49;5.50;;;1.85;;
22935;SDS011;11633;42.716;23.312;2022-11-20T14:27:15;5.20;;;2.17;;
22935;SDS011;11633;42.716;23.312;2022-11-20T14:29:41;4.32;;;2.38;;
22935;SDS011;11633;42.716;23.312;2022-11-20T14:32:08;3.17;;;2.25;;
22935;SDS011;11633;42.716;23.312;2022-11-20T14:34:35;5.82;;;2.15;;
22935;SDS011;11633;42.716;23.312;2022-11-20T14:37:03;3.60;;;1.25;;
22935;SDS011;11633;42.716;23.312;2022-11-20T14:39:30;4.25;;;1.88;;
22935;SDS011;11633;42.716;23.312;2022-11-20T14:41:56;1.58;;;1.05;;
22935;SDS011;11633;42.716;23.312;2022-11-20T14:44:25;1.85;;;0.82;;
22935;SDS011;11633;42.716;23.312;2022-11-20T14:46:51;2.15;;;1.30;;
22935;SDS011;11633;42.716;23.312;2022-11-20T14:49:16;2.95;;;1.40;;
22935;SDS011;11633;42.716;23.312;2022-11-20T14:51:42;3.38;;;1.10;;
22935;SDS011;11633;42.716;23.312;2022-11-20T14:56:36;3.67;;;1.35;;
22935;SDS011;11633;42.716;23.312;2022-11-20T14:59:01;2.53;;;1.00;;
22935;SDS011;11633;42.716;23.312;2022-11-20T15:01:27;4.38;;;1.92;;
22935;SDS011;11633;42.716;23.312;2022-11-20T15:06:30;2.83;;;1.23;;
22935;SDS011;11633;42.716;23.312;2022-11-20T15:08:56;2.53;;;0.88;;
22935;SDS011;11633;42.716;23.312;2022-11-20T15:11:25;1.30;;;1.00;;
22935;SDS011;11633;42.716;23.312;2022-11-20T15:13:52;1.85;;;1.00;;
22935;SDS011;11633;42.716;23.312;2022-11-20T15:16:18;1.60;;;1.20;;
22935;SDS011;11633;42.716;23.312;2022-11-20T15:18:44;2.72;;;1.35;;
22935;SDS011;11633;42.716;23.312;2022-11-20T15:21:10;3.33;;;1.50;;
22935;SDS011;11633;42.716;23.312;2022-11-20T15:23:36;2.63;;;2.10;;
22935;SDS011;11633;42.716;23.312;2022-11-20T15:26:01;2.95;;;2.22;;
22935;SDS011;11633;42.716;23.312;2022-11-20T15:28:33;3.42;;;2.50;;
22935;SDS011;11633;42.716;23.312;2022-11-20T15:30:59;3.60;;;2.35;;
22935;SDS011;11633;42.716;23.312;2022-11-20T15:33:24;3.65;;;2.33;;
22935;SDS011;11633;42.716;23.312;2022-11-20T15:35:49;3.90;;;2.83;;
22935;SDS011;11633;42.716;23.312;2022-11-20T15:38:15;3.70;;;2.40;;
22935;SDS011;11633;42.716;23.312;2022-11-20T15:40:40;3.00;;;2.15;;
22935;SDS011;11633;42.716;23.312;2022-11-20T15:43:05;4.85;;;2.40;;
22935;SDS011;11633;42.716;23.312;2022-11-20T15:45:42;3.63;;;2.95;;
22935;SDS011;11633;42.716;23.312;2022-11-20T15:48:30;3.45;;;1.55;;
22935;SDS011;11633;42.716;23.312;2022-11-20T15:53:28;4.45;;;1.77;;
22935;SDS011;11633;42.716;23.312;2022-11-20T15:55:54;2.55;;;1.00;;
22935;SDS011;11633;42.716;23.312;2022-11-20T15:58:19;1.15;;;1.00;;